sensor_id;sensor_type;location;lat;lon;timestamp;P1;durP1;ratioP1;P2;durP2;ratioP2
23206;SDS011;11773;52.570;13.052;2023-09-18T00:00:18;1.47;;;1.37;;
23206;SDS011;11773;52.570;13.052;2023-09-18T00:02:48;0.93;;;0.93;;
23206;SDS011;11773;52.570;13.052;2023-09-18T00:05:18;0.90;;;0.90;;
23206;SDS011;11773;52.570;13.052;2023-09-18T00:07:47;0.80;;;0.80;;
23206;SDS011;11773;52.570;13.052;2023-09-18T00:10:17;1.70;;;1.60;;
23206;SDS011;11773;52.570;13.052;2023-09-18T00:12:47;1.57;;;1.47;;
23206;SDS011;11773;52.570;13.052;2023-09-18T00:15:16;1.73;;;1.63;;
23206;SDS011;11773;52.570;13.052;2023-09-18T00:17:46;1.67;;;1.57;;
23206;SDS011;11773;52.570;13.052;2023-09-18T00:20:15;1.77;;;1.67;;
23206;SDS011;11773;52.570;13.052;2023-09-18T00:22:45;1.60;;;1.50;;
23206;SDS011;11773;52.570;13.052;2023-09-18T00:25:15;1.93;;;1.83;;
23206;SDS011;11773;52.570;13.052;2023-09-18T00:27:45;1.60;;;1.50;;
23206;SDS011;11773;52.570;13.052;2023-09-18T00:30:14;1.57;;;1.47;;
23206;SDS011;11773;52.570;13.052;2023-09-18T00:32:44;1.43;;;1.33;;
23206;SDS011;11773;52.570;13.052;2023-09-18T00:35:14;1.10;;;1.10;;
23206;SDS011;11773;52.570;13.052;2023-09-18T00:37:44;1.37;;;1.27;;
23206;SDS011;11773;52.570;13.052;2023-09-18T00:40:14;1.20;;;1.20;;
23206;SDS011;11773;52.570;13.052;2023-09-18T00:42:44;1.17;;;1.07;;
23206;SDS011;11773;52.570;13.052;2023-09-18T00:45:14;1.10;;;1.10;;
23206;SDS011;11773;52.570;13.052;2023-09-18T00:47:43;1.20;;;1.10;;
23206;SDS011;11773;52.570;13.052;2023-09-18T00:50:13;1.30;;;1.20;;
23206;SDS011;11773;52.570;13.052;2023-09-18T00:52:43;1.03;;;1.00;;
23206;SDS011;11773;52.570;13.052;2023-09-18T00:55:13;1.33;;;1.23;;
23206;SDS011;11773;52.570;13.052;2023-09-18T00:57:43;1.10;;;1.10;;
23206;SDS011;11773;52.570;13.052;2023-09-18T01:00:14;1.40;;;1.30;;
23206;SDS011;11773;52.570;13.052;2023-09-18T01:02:44;0.90;;;0.90;;
23206;SDS011;11773;52.570;13.052;2023-09-18T01:05:14;1.23;;;1.13;;
23206;SDS011;11773;52.570;13.052;2023-09-18T01:07:44;1.13;;;1.13;;
23206;SDS011;11773;52.570;13.052;2023-09-18T01:10:14;1.10;;;1.10;;
23206;SDS011;11773;52.570;13.052;2023-09-18T01:12:53;0.87;;;0.87;;
23206;SDS011;11773;52.570;13.052;2023-09-18T01:15:35;1.37;;;1.27;;
23206;SDS011;11773;52.570;13.052;2023-09-18T01:18:09;0.97;;;0.97;;
23206;SDS011;11773;52.570;13.052;2023-09-18T01:20:39;1.07;;;1.07;;
23206;SDS011;11773;52.570;13.052;2023-09-18T01:23:08;1.20;;;1.20;;
23206;SDS011;11773;52.570;13.052;2023-09-18T01:25:38;1.50;;;1.40;;
23206;SDS011;11773;52.570;13.052;2023-09-18T01:28:08;1.30;;;1.20;;
23206;SDS011;11773;52.570;13.052;2023-09-18T01:30:37;1.27;;;1.23;;
23206;SDS011;11773;52.570;13.052;2023-09-18T01:33:07;1.40;;;1.33;;
23206;SDS011;11773;52.570;13.052;2023-09-18T01:35:37;1.30;;;1.20;;
23206;SDS011;11773;52.570;13.052;2023-09-18T01:38:10;0.80;;;0.80;;
23206;SDS011;11773;52.570;13.052;2023-09-18T01:40:39;1.10;;;1.10;;
23206;SDS011;11773;52.570;13.052;2023-09-18T01:43:10;1.00;;;1.00;;
23206;SDS011;11773;52.570;13.052;2023-09-18T01:45:40;1.00;;;1.00;;
23206;SDS011;11773;52.570;13.052;2023-09-18T01:48:11;1.10;;;1.00;;
23206;SDS011;11773;52.570;13.052;2023-09-18T01:50:41;1.40;;;1.30;;
23206;SDS011;11773;52.570;13.052;2023-09-18T01:53:11;1.40;;;1.27;;
23206;SDS011;11773;52.570;13.052;2023-09-18T01:55:40;2.13;;;1.50;;
23206;SDS011;11773;52.570;13.052;2023-09-18T01:58:11;1.60;;;1.50;;
23206;SDS011;11773;52.570;13.052;2023-09-18T02:00:42;1.50;;;1.50;;
23206;SDS011;11773;52.570;13.052;2023-09-18T02:03:13;1.80;;;1.70;;
23206;SDS011;11773;52.570;13.052;2023-09-18T02:05:46;1.37;;;1.27;;
23206;SDS011;11773;52.570;13.052;2023-09-18T02:08:16;1.10;;;1.10;;
23206;SDS011;11773;52.570;13.052;2023-09-18T02:10:46;1.67;;;1.57;;
23206;SDS011;11773;52.570;13.052;2023-09-18T02:13:16;1.10;;;1.10;;
23206;SDS011;11773;52.570;13.052;2023-09-18T02:15:45;1.20;;;1.20;;
23206;SDS011;11773;52.570;13.052;2023-09-18T02:18:15;1.63;;;1.53;;
23206;SDS011;11773;52.570;13.052;2023-09-18T02:20:46;1.40;;;1.30;;
23206;SDS011;11773;52.570;13.052;2023-09-18T02:23:16;1.50;;;1.40;;
23206;SDS011;11773;52.570;13.052;2023-09-18T02:25:46;1.40;;;1.30;;
23206;SDS011;11773;52.570;13.052;2023-09-18T02:28:18;1.10;;;1.10;;
23206;SDS011;11773;52.570;13.052;2023-09-18T02:30:48;1.23;;;1.23;;
23206;SDS011;11773;52.570;13.052;2023-09-18T02:33:18;1.27;;;1.27;;
23206;SDS011;11773;52.570;13.052;2023-09-18T02:35:48;1.30;;;1.20;;
23206;SDS011;11773;52.570;13.052;2023-09-18T02:38:18;1.57;;;1.47;;
23206;SDS011;11773;52.570;13.052;2023-09-18T02:40:47;1.73;;;1.63;;
23206;SDS011;11773;52.570;13.052;2023-09-18T02:43:17;1.60;;;1.50;;
23206;SDS011;11773;52.570;13.052;2023-09-18T02:45:47;1.60;;;1.50;;
23206;SDS011;11773;52.570;13.052;2023-09-18T02:48:17;1.50;;;1.40;;
23206;SDS011;11773;52.570;13.052;2023-09-18T02:50:47;2.23;;;1.50;;
23206;SDS011;11773;52.570;13.052;2023-09-18T02:53:18;1.30;;;1.20;;
23206;SDS011;11773;52.570;13.052;2023-09-18T02:55:54;1.07;;;1.07;;
23206;SDS011;11773;52.570;13.052;2023-09-18T02:58:25;1.53;;;1.43;;
23206;SDS011;11773;52.570;13.052;2023-09-18T03:00:57;1.40;;;1.30;;
23206;SDS011;11773;52.570;13.052;2023-09-18T03:03:27;1.10;;;1.00;;
23206;SDS011;11773;52.570;13.052;2023-09-18T03:06:00;1.30;;;1.20;;
23206;SDS011;11773;52.570;13.052;2023-09-18T03:08:33;1.83;;;1.73;;
23206;SDS011;11773;52.570;13.052;2023-09-18T03:11:03;1.20;;;1.20;;
23206;SDS011;11773;52.570;13.052;2023-09-18T03:13:44;1.47;;;1.47;;
23206;SDS011;11773;52.570;13.052;2023-09-18T03:16:15;1.43;;;1.33;;
23206;SDS011;11773;52.570;13.052;2023-09-18T03:18:45;1.50;;;1.40;;
23206;SDS011;11773;52.570;13.052;2023-09-18T03:21:14;1.20;;;1.20;;
23206;SDS011;11773;52.570;13.052;2023-09-18T03:23:44;1.70;;;1.60;;
23206;SDS011;11773;52.570;13.052;2023-09-18T03:26:13;1.10;;;1.10;;
23206;SDS011;11773;52.570;13.052;2023-09-18T03:28:43;1.30;;;1.20;;
23206;SDS011;11773;52.570;13.052;2023-09-18T03:31:13;1.30;;;1.20;;
23206;SDS011;11773;52.570;13.052;2023-09-18T03:33:43;1.20;;;1.20;;
23206;SDS011;11773;52.570;13.052;2023-09-18T03:36:13;0.90;;;0.90;;
23206;SDS011;11773;52.570;13.052;2023-09-18T03:38:43;0.90;;;0.90;;
23206;SDS011;11773;52.570;13.052;2023-09-18T03:41:13;0.90;;;0.90;;
23206;SDS011;11773;52.570;13.052;2023-09-18T03:43:42;0.87;;;0.87;;
23206;SDS011;11773;52.570;13.052;2023-09-18T03:46:12;1.10;;;1.10;;
23206;SDS011;11773;52.570;13.052;2023-09-18T03:48:42;1.00;;;1.00;;
23206;SDS011;11773;52.570;13.052;2023-09-18T03:51:11;1.40;;;1.30;;
23206;SDS011;11773;52.570;13.052;2023-09-18T03:53:43;1.13;;;1.00;;
23206;SDS011;11773;52.570;13.052;2023-09-18T03:56:15;1.40;;;1.30;;
23206;SDS011;11773;52.570;13.052;2023-09-18T03:58:44;1.20;;;1.20;;
23206;SDS011;11773;52.570;13.052;2023-09-18T04:01:16;1.40;;;1.30;;
23206;SDS011;11773;52.570;13.052;2023-09-18T04:03:46;1.53;;;1.43;;
23206;SDS011;11773;52.570;13.052;2023-09-18T04:06:15;1.47;;;1.37;;
23206;SDS011;11773;52.570;13.052;2023-09-18T04:08:46;1.23;;;1.13;;
23206;SDS011;11773;52.570;13.052;2023-09-18T04:11:17;1.50;;;1.40;;
23206;SDS011;11773;52.570;13.052;2023-09-18T04:13:48;1.50;;;1.40;;
23206;SDS011;11773;52.570;13.052;2023-09-18T04:16:18;1.47;;;1.37;;
23206;SDS011;11773;52.570;13.052;2023-09-18T04:18:47;1.70;;;1.60;;
23206;SDS011;11773;52.570;13.052;2023-09-18T04:21:17;1.50;;;1.40;;
23206;SDS011;11773;52.570;13.052;2023-09-18T04:23:48;1.47;;;1.37;;
23206;SDS011;11773;52.570;13.052;2023-09-18T04:26:20;1.10;;;1.10;;
23206;SDS011;11773;52.570;13.052;2023-09-18T04:28:50;1.60;;;1.50;;
23206;SDS011;11773;52.570;13.052;2023-09-18T04:31:20;1.40;;;1.30;;
23206;SDS011;11773;52.570;13.052;2023-09-18T04:33:50;1.33;;;1.23;;
23206;SDS011;11773;52.570;13.052;2023-09-18T04:36:20;1.10;;;1.10;;
23206;SDS011;11773;52.570;13.052;2023-09-18T04:38:49;1.10;;;1.10;;
23206;SDS011;11773;52.570;13.052;2023-09-18T04:41:20;1.60;;;1.50;;
23206;SDS011;11773;52.570;13.052;2023-09-18T04:43:49;1.40;;;1.30;;
23206;SDS011;11773;52.570;13.052;2023-09-18T04:46:19;1.33;;;1.23;;
23206;SDS011;11773;52.570;13.052;2023-09-18T04:48:48;1.30;;;1.30;;
23206;SDS011;11773;52.570;13.052;2023-09-18T04:51:18;1.53;;;1.30;;
23206;SDS011;11773;52.570;13.052;2023-09-18T04:53:48;1.67;;;1.57;;
23206;SDS011;11773;52.570;13.052;2023-09-18T04:56:19;1.40;;;1.30;;
23206;SDS011;11773;52.570;13.052;2023-09-18T04:58:48;2.00;;;1.90;;
23206;SDS011;11773;52.570;13.052;2023-09-18T05:01:18;1.53;;;1.43;;
23206;SDS011;11773;52.570;13.052;2023-09-18T05:03:48;1.80;;;1.70;;
23206;SDS011;11773;52.570;13.052;2023-09-18T05:06:18;1.53;;;1.43;;
23206;SDS011;11773;52.570;13.052;2023-09-18T05:08:48;1.80;;;1.70;;
23206;SDS011;11773;52.570;13.052;2023-09-18T05:11:19;1.90;;;1.80;;
23206;SDS011;11773;52.570;13.052;2023-09-18T05:13:48;1.63;;;1.47;;
23206;SDS011;11773;52.570;13.052;2023-09-18T05:16:19;2.43;;;2.13;;
23206;SDS011;11773;52.570;13.052;2023-09-18T05:18:49;2.00;;;1.90;;
23206;SDS011;11773;52.570;13.052;2023-09-18T05:21:20;2.57;;;2.37;;
23206;SDS011;11773;52.570;13.052;2023-09-18T05:23:51;2.07;;;1.97;;
23206;SDS011;11773;52.570;13.052;2023-09-18T05:26:21;2.60;;;2.40;;
23206;SDS011;11773;52.570;13.052;2023-09-18T05:28:52;2.10;;;2.00;;
23206;SDS011;11773;52.570;13.052;2023-09-18T05:31:22;2.43;;;2.33;;
23206;SDS011;11773;52.570;13.052;2023-09-18T05:33:51;2.47;;;2.27;;
23206;SDS011;11773;52.570;13.052;2023-09-18T05:36:21;2.80;;;2.60;;
23206;SDS011;11773;52.570;13.052;2023-09-18T05:38:50;2.80;;;2.60;;
23206;SDS011;11773;52.570;13.052;2023-09-18T05:41:21;2.77;;;2.57;;
23206;SDS011;11773;52.570;13.052;2023-09-18T05:43:52;2.70;;;2.50;;
23206;SDS011;11773;52.570;13.052;2023-09-18T05:46:22;2.77;;;2.57;;
23206;SDS011;11773;52.570;13.052;2023-09-18T05:48:51;2.77;;;2.57;;
23206;SDS011;11773;52.570;13.052;2023-09-18T05:51:22;2.87;;;2.67;;
23206;SDS011;11773;52.570;13.052;2023-09-18T05:53:52;2.90;;;2.70;;
23206;SDS011;11773;52.570;13.052;2023-09-18T05:56:22;2.73;;;2.53;;
23206;SDS011;11773;52.570;13.052;2023-09-18T05:58:52;3.40;;;3.10;;
23206;SDS011;11773;52.570;13.052;2023-09-18T06:01:22;3.33;;;3.03;;
23206;SDS011;11773;52.570;13.052;2023-09-18T06:03:52;3.17;;;2.97;;
23206;SDS011;11773;52.570;13.052;2023-09-18T06:06:22;2.80;;;2.37;;
23206;SDS011;11773;52.570;13.052;2023-09-18T06:08:52;2.70;;;2.50;;
23206;SDS011;11773;52.570;13.052;2023-09-18T06:11:22;2.53;;;2.33;;
23206;SDS011;11773;52.570;13.052;2023-09-18T06:13:52;2.30;;;2.10;;
23206;SDS011;11773;52.570;13.052;2023-09-18T06:16:21;2.50;;;2.30;;
23206;SDS011;11773;52.570;13.052;2023-09-18T06:18:51;2.13;;;2.03;;
23206;SDS011;11773;52.570;13.052;2023-09-18T06:21:23;2.60;;;2.40;;
23206;SDS011;11773;52.570;13.052;2023-09-18T06:23:52;2.80;;;2.60;;
23206;SDS011;11773;52.570;13.052;2023-09-18T06:26:22;2.97;;;2.67;;
23206;SDS011;11773;52.570;13.052;2023-09-18T06:28:52;2.93;;;2.73;;
23206;SDS011;11773;52.570;13.052;2023-09-18T06:31:23;2.87;;;2.67;;
23206;SDS011;11773;52.570;13.052;2023-09-18T06:33:53;3.00;;;2.80;;
23206;SDS011;11773;52.570;13.052;2023-09-18T06:36:23;2.70;;;2.47;;
23206;SDS011;11773;52.570;13.052;2023-09-18T06:38:52;3.00;;;2.70;;
23206;SDS011;11773;52.570;13.052;2023-09-18T06:41:22;2.80;;;2.60;;
23206;SDS011;11773;52.570;13.052;2023-09-18T06:43:52;1.80;;;1.70;;
23206;SDS011;11773;52.570;13.052;2023-09-18T06:46:21;2.30;;;2.20;;
23206;SDS011;11773;52.570;13.052;2023-09-18T06:48:52;2.73;;;2.53;;
23206;SDS011;11773;52.570;13.052;2023-09-18T06:51:22;2.70;;;2.50;;
23206;SDS011;11773;52.570;13.052;2023-09-18T06:53:53;2.83;;;2.63;;
23206;SDS011;11773;52.570;13.052;2023-09-18T06:56:24;3.50;;;3.30;;
23206;SDS011;11773;52.570;13.052;2023-09-18T06:58:54;3.03;;;2.80;;
23206;SDS011;11773;52.570;13.052;2023-09-18T07:01:23;3.57;;;3.00;;
23206;SDS011;11773;52.570;13.052;2023-09-18T07:03:55;3.20;;;3.00;;
23206;SDS011;11773;52.570;13.052;2023-09-18T07:06:26;2.90;;;2.70;;
23206;SDS011;11773;52.570;13.052;2023-09-18T07:08:56;2.80;;;2.60;;
23206;SDS011;11773;52.570;13.052;2023-09-18T07:11:26;2.77;;;2.57;;
23206;SDS011;11773;52.570;13.052;2023-09-18T07:13:56;3.10;;;2.83;;
23206;SDS011;11773;52.570;13.052;2023-09-18T07:16:25;3.17;;;2.87;;
23206;SDS011;11773;52.570;13.052;2023-09-18T07:18:55;2.70;;;2.50;;
23206;SDS011;11773;52.570;13.052;2023-09-18T07:21:24;2.80;;;2.60;;
23206;SDS011;11773;52.570;13.052;2023-09-18T07:23:55;2.93;;;2.73;;
23206;SDS011;11773;52.570;13.052;2023-09-18T07:26:25;3.23;;;2.80;;
23206;SDS011;11773;52.570;13.052;2023-09-18T07:28:55;2.80;;;2.60;;
23206;SDS011;11773;52.570;13.052;2023-09-18T07:31:26;2.50;;;2.40;;
23206;SDS011;11773;52.570;13.052;2023-09-18T07:33:56;3.07;;;2.87;;
23206;SDS011;11773;52.570;13.052;2023-09-18T07:36:26;3.10;;;2.73;;
23206;SDS011;11773;52.570;13.052;2023-09-18T07:38:56;2.57;;;2.37;;
23206;SDS011;11773;52.570;13.052;2023-09-18T07:41:25;2.60;;;2.40;;
23206;SDS011;11773;52.570;13.052;2023-09-18T07:43:55;2.67;;;2.47;;
23206;SDS011;11773;52.570;13.052;2023-09-18T07:46:27;2.30;;;2.20;;
23206;SDS011;11773;52.570;13.052;2023-09-18T07:48:57;2.50;;;2.30;;
23206;SDS011;11773;52.570;13.052;2023-09-18T07:51:27;2.67;;;2.47;;
23206;SDS011;11773;52.570;13.052;2023-09-18T07:53:57;2.37;;;2.17;;
23206;SDS011;11773;52.570;13.052;2023-09-18T07:56:26;2.30;;;2.10;;
23206;SDS011;11773;52.570;13.052;2023-09-18T07:58:58;2.57;;;2.37;;
23206;SDS011;11773;52.570;13.052;2023-09-18T08:01:28;3.30;;;2.87;;
23206;SDS011;11773;52.570;13.052;2023-09-18T08:03:59;2.57;;;2.37;;
23206;SDS011;11773;52.570;13.052;2023-09-18T08:06:28;2.30;;;2.10;;
23206;SDS011;11773;52.570;13.052;2023-09-18T08:08:58;2.60;;;2.40;;
23206;SDS011;11773;52.570;13.052;2023-09-18T08:11:28;2.67;;;2.47;;
23206;SDS011;11773;52.570;13.052;2023-09-18T08:13:58;3.20;;;3.00;;
23206;SDS011;11773;52.570;13.052;2023-09-18T08:16:28;2.50;;;2.30;;
23206;SDS011;11773;52.570;13.052;2023-09-18T08:18:58;2.70;;;2.50;;
23206;SDS011;11773;52.570;13.052;2023-09-18T08:21:30;2.70;;;2.50;;
23206;SDS011;11773;52.570;13.052;2023-09-18T08:24:00;2.40;;;2.30;;
23206;SDS011;11773;52.570;13.052;2023-09-18T08:26:29;3.10;;;2.90;;
23206;SDS011;11773;52.570;13.052;2023-09-18T08:28:59;2.80;;;2.60;;
23206;SDS011;11773;52.570;13.052;2023-09-18T08:31:29;2.80;;;2.60;;
23206;SDS011;11773;52.570;13.052;2023-09-18T08:33:59;3.20;;;3.00;;
23206;SDS011;11773;52.570;13.052;2023-09-18T08:36:29;2.80;;;2.60;;
23206;SDS011;11773;52.570;13.052;2023-09-18T08:38:58;2.90;;;2.70;;
23206;SDS011;11773;52.570;13.052;2023-09-18T08:41:28;2.80;;;2.60;;
23206;SDS011;11773;52.570;13.052;2023-09-18T08:44:01;3.00;;;2.80;;
23206;SDS011;11773;52.570;13.052;2023-09-18T08:46:33;3.00;;;2.70;;
23206;SDS011;11773;52.570;13.052;2023-09-18T08:49:04;2.90;;;2.63;;
23206;SDS011;11773;52.570;13.052;2023-09-18T08:51:37;2.60;;;2.40;;
23206;SDS011;11773;52.570;13.052;2023-09-18T08:54:09;2.37;;;2.27;;
23206;SDS011;11773;52.570;13.052;2023-09-18T08:56:39;2.53;;;2.33;;
23206;SDS011;11773;52.570;13.052;2023-09-18T08:59:09;2.10;;;2.00;;
23206;SDS011;11773;52.570;13.052;2023-09-18T09:01:40;2.73;;;2.53;;
23206;SDS011;11773;52.570;13.052;2023-09-18T09:04:10;3.00;;;2.80;;
23206;SDS011;11773;52.570;13.052;2023-09-18T09:06:39;3.10;;;2.90;;
23206;SDS011;11773;52.570;13.052;2023-09-18T09:09:09;2.83;;;2.50;;
23206;SDS011;11773;52.570;13.052;2023-09-18T09:11:40;2.73;;;2.53;;
23206;SDS011;11773;52.570;13.052;2023-09-18T09:14:18;2.27;;;2.17;;
23206;SDS011;11773;52.570;13.052;2023-09-18T09:16:57;3.33;;;2.20;;
23206;SDS011;11773;52.570;13.052;2023-09-18T09:19:29;2.23;;;2.13;;
23206;SDS011;11773;52.570;13.052;2023-09-18T09:22:03;2.23;;;2.13;;
23206;SDS011;11773;52.570;13.052;2023-09-18T09:24:43;2.67;;;2.47;;
23206;SDS011;11773;52.570;13.052;2023-09-18T09:27:12;3.50;;;3.20;;
23206;SDS011;11773;52.570;13.052;2023-09-18T09:29:51;2.70;;;2.50;;
23206;SDS011;11773;52.570;13.052;2023-09-18T09:32:31;2.40;;;2.30;;
23206;SDS011;11773;52.570;13.052;2023-09-18T09:35:01;2.60;;;2.30;;
23206;SDS011;11773;52.570;13.052;2023-09-18T09:37:33;2.47;;;2.27;;
23206;SDS011;11773;52.570;13.052;2023-09-18T09:40:03;2.10;;;2.00;;
23206;SDS011;11773;52.570;13.052;2023-09-18T09:42:39;2.40;;;2.30;;
23206;SDS011;11773;52.570;13.052;2023-09-18T09:45:13;2.17;;;2.07;;
23206;SDS011;11773;52.570;13.052;2023-09-18T09:47:44;2.80;;;2.60;;
23206;SDS011;11773;52.570;13.052;2023-09-18T09:50:14;2.63;;;2.43;;
23206;SDS011;11773;52.570;13.052;2023-09-18T09:52:46;2.90;;;2.70;;
23206;SDS011;11773;52.570;13.052;2023-09-18T09:55:18;3.13;;;2.80;;
23206;SDS011;11773;52.570;13.052;2023-09-18T09:57:52;2.60;;;2.40;;
23206;SDS011;11773;52.570;13.052;2023-09-18T10:00:28;3.03;;;2.73;;
23206;SDS011;11773;52.570;13.052;2023-09-18T10:03:12;2.87;;;2.67;;
23206;SDS011;11773;52.570;13.052;2023-09-18T10:05:45;3.10;;;2.67;;
23206;SDS011;11773;52.570;13.052;2023-09-18T10:08:19;2.83;;;2.63;;
23206;SDS011;11773;52.570;13.052;2023-09-18T10:10:55;2.77;;;2.57;;
23206;SDS011;11773;52.570;13.052;2023-09-18T10:13:40;2.80;;;2.57;;
23206;SDS011;11773;52.570;13.052;2023-09-18T10:16:13;2.23;;;2.13;;
23206;SDS011;11773;52.570;13.052;2023-09-18T10:19:06;2.00;;;1.90;;
23206;SDS011;11773;52.570;13.052;2023-09-18T10:21:57;2.00;;;1.90;;
23206;SDS011;11773;52.570;13.052;2023-09-18T10:24:50;2.27;;;2.17;;
23206;SDS011;11773;52.570;13.052;2023-09-18T10:27:24;2.30;;;2.20;;
23206;SDS011;11773;52.570;13.052;2023-09-18T10:29:55;2.60;;;2.40;;
23206;SDS011;11773;52.570;13.052;2023-09-18T10:32:28;2.30;;;2.20;;
23206;SDS011;11773;52.570;13.052;2023-09-18T10:34:59;2.00;;;1.90;;
23206;SDS011;11773;52.570;13.052;2023-09-18T10:37:30;2.10;;;2.00;;
23206;SDS011;11773;52.570;13.052;2023-09-18T10:40:00;2.20;;;2.10;;
23206;SDS011;11773;52.570;13.052;2023-09-18T10:42:32;2.10;;;2.00;;
23206;SDS011;11773;52.570;13.052;2023-09-18T10:45:05;2.00;;;1.90;;
23206;SDS011;11773;52.570;13.052;2023-09-18T10:47:40;2.20;;;2.10;;
23206;SDS011;11773;52.570;13.052;2023-09-18T10:50:15;1.80;;;1.70;;
23206;SDS011;11773;52.570;13.052;2023-09-18T10:52:56;1.90;;;1.80;;
23206;SDS011;11773;52.570;13.052;2023-09-18T10:55:26;2.00;;;1.90;;
23206;SDS011;11773;52.570;13.052;2023-09-18T10:57:56;1.70;;;1.60;;
23206;SDS011;11773;52.570;13.052;2023-09-18T11:00:28;2.00;;;1.90;;
23206;SDS011;11773;52.570;13.052;2023-09-18T11:03:21;1.77;;;1.67;;
23206;SDS011;11773;52.570;13.052;2023-09-18T11:05:47;1.80;;;1.70;;
23206;SDS011;11773;52.570;13.052;2023-09-18T11:08:25;1.97;;;1.80;;
23206;SDS011;11773;52.570;13.052;2023-09-18T11:11:07;1.93;;;1.83;;
23206;SDS011;11773;52.570;13.052;2023-09-18T11:13:41;1.80;;;1.70;;
23206;SDS011;11773;52.570;13.052;2023-09-18T11:16:18;1.87;;;1.77;;
23206;SDS011;11773;52.570;13.052;2023-09-18T11:21:36;1.80;;;1.70;;
23206;SDS011;11773;52.570;13.052;2023-09-18T11:24:16;1.70;;;1.60;;
23206;SDS011;11773;52.570;13.052;2023-09-18T11:26:50;1.90;;;1.80;;
23206;SDS011;11773;52.570;13.052;2023-09-18T11:29:21;1.70;;;1.60;;
23206;SDS011;11773;52.570;13.052;2023-09-18T11:31:55;1.57;;;1.47;;
23206;SDS011;11773;52.570;13.052;2023-09-18T11:34:27;1.93;;;1.73;;
23206;SDS011;11773;52.570;13.052;2023-09-18T11:36:58;1.87;;;1.77;;
23206;SDS011;11773;52.570;13.052;2023-09-18T11:39:34;1.57;;;1.47;;
23206;SDS011;11773;52.570;13.052;2023-09-18T11:42:09;2.00;;;1.90;;
23206;SDS011;11773;52.570;13.052;2023-09-18T11:44:43;1.80;;;1.70;;
23206;SDS011;11773;52.570;13.052;2023-09-18T11:47:17;1.90;;;1.80;;
23206;SDS011;11773;52.570;13.052;2023-09-18T11:49:50;1.77;;;1.67;;
23206;SDS011;11773;52.570;13.052;2023-09-18T11:52:28;1.70;;;1.60;;
23206;SDS011;11773;52.570;13.052;2023-09-18T11:54:59;1.87;;;1.77;;
23206;SDS011;11773;52.570;13.052;2023-09-18T11:57:34;1.60;;;1.50;;
23206;SDS011;11773;52.570;13.052;2023-09-18T12:00:05;1.33;;;1.30;;
23206;SDS011;11773;52.570;13.052;2023-09-18T12:02:39;1.30;;;1.30;;
23206;SDS011;11773;52.570;13.052;2023-09-18T12:05:11;1.90;;;1.80;;
23206;SDS011;11773;52.570;13.052;2023-09-18T12:07:47;1.90;;;1.80;;
23206;SDS011;11773;52.570;13.052;2023-09-18T12:10:18;2.07;;;1.97;;
23206;SDS011;11773;52.570;13.052;2023-09-18T12:12:49;2.30;;;2.17;;
23206;SDS011;11773;52.570;13.052;2023-09-18T12:15:19;2.50;;;2.30;;
23206;SDS011;11773;52.570;13.052;2023-09-18T12:17:53;2.10;;;2.00;;
23206;SDS011;11773;52.570;13.052;2023-09-18T12:20:25;2.00;;;1.90;;
23206;SDS011;11773;52.570;13.052;2023-09-18T12:22:55;1.73;;;1.63;;
23206;SDS011;11773;52.570;13.052;2023-09-18T12:25:24;1.80;;;1.70;;
23206;SDS011;11773;52.570;13.052;2023-09-18T12:27:54;1.40;;;1.40;;
23206;SDS011;11773;52.570;13.052;2023-09-18T12:30:26;1.57;;;1.47;;
23206;SDS011;11773;52.570;13.052;2023-09-18T12:32:58;1.50;;;1.40;;
23206;SDS011;11773;52.570;13.052;2023-09-18T12:35:30;1.40;;;1.30;;
23206;SDS011;11773;52.570;13.052;2023-09-18T12:38:00;1.10;;;1.10;;
23206;SDS011;11773;52.570;13.052;2023-09-18T12:40:31;1.10;;;1.10;;
23206;SDS011;11773;52.570;13.052;2023-09-18T12:43:01;1.30;;;1.20;;
23206;SDS011;11773;52.570;13.052;2023-09-18T12:45:33;1.20;;;1.10;;
23206;SDS011;11773;52.570;13.052;2023-09-18T12:48:05;1.33;;;1.33;;
23206;SDS011;11773;52.570;13.052;2023-09-18T12:50:35;0.70;;;0.70;;
23206;SDS011;11773;52.570;13.052;2023-09-18T12:53:12;1.43;;;1.40;;
23206;SDS011;11773;52.570;13.052;2023-09-18T12:55:44;1.70;;;1.60;;
23206;SDS011;11773;52.570;13.052;2023-09-18T12:58:13;1.17;;;1.17;;
23206;SDS011;11773;52.570;13.052;2023-09-18T13:00:51;1.63;;;1.53;;
23206;SDS011;11773;52.570;13.052;2023-09-18T13:03:20;1.07;;;1.07;;
23206;SDS011;11773;52.570;13.052;2023-09-18T13:05:51;1.43;;;1.40;;
23206;SDS011;11773;52.570;13.052;2023-09-18T13:08:23;1.40;;;1.30;;
23206;SDS011;11773;52.570;13.052;2023-09-18T13:10:53;1.80;;;1.70;;
23206;SDS011;11773;52.570;13.052;2023-09-18T13:13:23;1.60;;;1.50;;
23206;SDS011;11773;52.570;13.052;2023-09-18T13:15:56;1.97;;;1.67;;
23206;SDS011;11773;52.570;13.052;2023-09-18T13:18:28;1.70;;;1.60;;
23206;SDS011;11773;52.570;13.052;2023-09-18T13:20:58;1.60;;;1.50;;
23206;SDS011;11773;52.570;13.052;2023-09-18T13:23:29;2.17;;;1.53;;
23206;SDS011;11773;52.570;13.052;2023-09-18T13:26:01;1.57;;;1.47;;
23206;SDS011;11773;52.570;13.052;2023-09-18T13:28:35;1.40;;;1.30;;
23206;SDS011;11773;52.570;13.052;2023-09-18T13:31:06;1.37;;;1.10;;
23206;SDS011;11773;52.570;13.052;2023-09-18T13:33:39;1.13;;;1.13;;
23206;SDS011;11773;52.570;13.052;2023-09-18T13:36:10;0.90;;;0.90;;
23206;SDS011;11773;52.570;13.052;2023-09-18T13:38:40;1.33;;;1.30;;
23206;SDS011;11773;52.570;13.052;2023-09-18T13:41:11;1.57;;;1.30;;
23206;SDS011;11773;52.570;13.052;2023-09-18T13:43:41;2.10;;;2.00;;
23206;SDS011;11773;52.570;13.052;2023-09-18T13:46:12;1.70;;;1.60;;
23206;SDS011;11773;52.570;13.052;2023-09-18T13:48:42;1.67;;;1.57;;
23206;SDS011;11773;52.570;13.052;2023-09-18T13:51:12;1.23;;;1.23;;
23206;SDS011;11773;52.570;13.052;2023-09-18T13:53:41;0.97;;;0.97;;
23206;SDS011;11773;52.570;13.052;2023-09-18T13:56:11;1.23;;;1.23;;
23206;SDS011;11773;52.570;13.052;2023-09-18T13:58:41;1.33;;;1.33;;
23206;SDS011;11773;52.570;13.052;2023-09-18T14:01:10;1.63;;;1.53;;
23206;SDS011;11773;52.570;13.052;2023-09-18T14:03:42;1.60;;;1.50;;
23206;SDS011;11773;52.570;13.052;2023-09-18T14:06:12;1.40;;;1.30;;
23206;SDS011;11773;52.570;13.052;2023-09-18T14:08:42;1.70;;;1.30;;
23206;SDS011;11773;52.570;13.052;2023-09-18T14:11:11;1.40;;;1.40;;
23206;SDS011;11773;52.570;13.052;2023-09-18T14:13:41;1.57;;;1.47;;
23206;SDS011;11773;52.570;13.052;2023-09-18T14:16:11;1.60;;;1.50;;
23206;SDS011;11773;52.570;13.052;2023-09-18T14:18:42;1.37;;;1.27;;
23206;SDS011;11773;52.570;13.052;2023-09-18T14:21:11;1.70;;;1.60;;
23206;SDS011;11773;52.570;13.052;2023-09-18T14:23:41;1.80;;;1.70;;
23206;SDS011;11773;52.570;13.052;2023-09-18T14:26:10;1.27;;;1.23;;
23206;SDS011;11773;52.570;13.052;2023-09-18T14:28:43;1.50;;;1.40;;
23206;SDS011;11773;52.570;13.052;2023-09-18T14:31:13;2.33;;;2.13;;
23206;SDS011;11773;52.570;13.052;2023-09-18T14:33:44;2.07;;;1.87;;
23206;SDS011;11773;52.570;13.052;2023-09-18T14:36:13;1.07;;;1.03;;
23206;SDS011;11773;52.570;13.052;2023-09-18T14:38:43;1.50;;;1.40;;
23206;SDS011;11773;52.570;13.052;2023-09-18T14:41:13;2.20;;;1.80;;
23206;SDS011;11773;52.570;13.052;2023-09-18T14:43:45;1.13;;;1.13;;
23206;SDS011;11773;52.570;13.052;2023-09-18T14:46:14;1.40;;;1.40;;
23206;SDS011;11773;52.570;13.052;2023-09-18T14:48:45;1.00;;;1.00;;
23206;SDS011;11773;52.570;13.052;2023-09-18T14:51:15;1.27;;;1.27;;
23206;SDS011;11773;52.570;13.052;2023-09-18T14:53:45;1.53;;;1.43;;
23206;SDS011;11773;52.570;13.052;2023-09-18T14:56:14;1.30;;;1.20;;
23206;SDS011;11773;52.570;13.052;2023-09-18T14:58:44;1.27;;;1.17;;